createdAt,value
2022-12-28T00:01:52.915Z,32.00
2022-12-28T00:04:20.910Z,31.98
2022-12-28T00:06:50.670Z,34.53
2022-12-28T00:09:20.097Z,32.35
2022-12-28T00:11:48.255Z,33.80
2022-12-28T00:14:16.136Z,32.25
2022-12-28T00:16:44.756Z,28.02
2022-12-28T00:19:14.593Z,28.40
2022-12-28T00:21:42.832Z,28.08
2022-12-28T00:24:20.325Z,25.13
2022-12-28T00:26:48.334Z,25.17
2022-12-28T00:29:16.494Z,29.17
2022-12-28T00:31:45.759Z,25.50
2022-12-28T00:34:13.908Z,27.80
2022-12-28T00:37:10.645Z,27.67
2022-12-28T00:39:31.417Z,28.48
2022-12-28T00:41:59.424Z,27.27
2022-12-28T00:44:27.386Z,27.67
2022-12-28T00:46:55.901Z,24.00
2022-12-28T00:49:23.805Z,26.95
2022-12-28T00:51:51.761Z,25.13
2022-12-28T00:54:19.715Z,23.40
2022-12-28T00:56:48.982Z,23.65
2022-12-28T00:59:17.428Z,23.52
2022-12-28T01:01:45.511Z,20.15
2022-12-28T01:04:13.596Z,20.10
2022-12-28T01:06:41.590Z,22.88
2022-12-28T01:09:09.564Z,21.05
2022-12-28T01:11:37.482Z,23.08
2022-12-28T01:14:06.814Z,21.52
2022-12-28T01:16:37.163Z,21.42
2022-12-28T01:19:07.305Z,22.27
2022-12-28T01:21:36.978Z,19.40
2022-12-28T01:24:07.809Z,18.58
2022-12-28T01:26:36.019Z,19.40
2022-12-28T01:29:05.845Z,18.15
2022-12-28T01:31:34.227Z,17.77
2022-12-28T01:34:02.459Z,17.70
2022-12-28T01:36:32.423Z,20.42
2022-12-28T01:39:02.726Z,20.17
2022-12-28T01:41:31.925Z,18.60
2022-12-28T01:44:40.111Z,18.65
2022-12-28T01:47:11.468Z,18.85
2022-12-28T01:49:44.336Z,18.77
2022-12-28T01:52:16.092Z,17.65
2022-12-28T01:54:47.050Z,20.85
2022-12-28T01:57:16.201Z,19.73
2022-12-28T01:59:48.629Z,21.13
2022-12-28T02:04:46.498Z,17.52
2022-12-28T02:07:19.935Z,21.77
2022-12-28T02:10:40.749Z,21.65
2022-12-28T02:12:37.012Z,21.55
2022-12-28T02:15:07.202Z,20.55
2022-12-28T02:17:35.300Z,19.63
2022-12-28T02:20:03.601Z,22.25
2022-12-28T02:22:58.624Z,19.52
2022-12-28T02:26:10.187Z,20.80
2022-12-28T02:29:11.005Z,19.23
2022-12-28T02:31:45.178Z,21.08
2022-12-28T02:34:20.650Z,22.23
2022-12-28T02:36:54.918Z,21.92
2022-12-28T02:39:29.605Z,19.67
2022-12-28T02:41:58.343Z,21.92
2022-12-28T02:44:45.028Z,18.17
2022-12-28T02:47:34.380Z,20.85
2022-12-28T02:50:08.859Z,20.05
2022-12-28T02:52:58.079Z,20.33
2022-12-28T02:56:00.651Z,21.75
2022-12-28T02:58:55.681Z,22.63
2022-12-28T03:01:37.632Z,19.75
2022-12-28T03:04:13.998Z,21.15
2022-12-28T03:07:06.519Z,21.40
2022-12-28T03:09:41.426Z,20.65
2022-12-28T03:12:19.668Z,20.42
2022-12-28T03:14:50.274Z,21.35
2022-12-28T03:17:38.719Z,25.90
2022-12-28T03:20:28.187Z,23.17
2022-12-28T03:23:18.223Z,23.95
2022-12-28T03:26:06.272Z,24.88
2022-12-28T03:28:53.896Z,28.13
2022-12-28T03:31:24.727Z,24.80
2022-12-28T03:34:06.619Z,26.45
2022-12-28T03:36:44.178Z,28.02
2022-12-28T03:39:23.688Z,25.77
2022-12-28T03:42:13.748Z,25.30
2022-12-28T03:44:46.837Z,23.75
2022-12-28T03:47:16.799Z,25.92
2022-12-28T03:49:46.278Z,26.27
2022-12-28T03:52:14.751Z,26.17
2022-12-28T03:54:42.806Z,26.35
2022-12-28T03:57:10.791Z,21.23
2022-12-28T03:59:38.761Z,26.77
2022-12-28T04:02:06.865Z,24.75
2022-12-28T04:04:34.877Z,24.67
2022-12-28T04:07:04.166Z,26.58
2022-12-28T04:09:32.490Z,25.98
2022-12-28T04:12:00.627Z,27.40
2022-12-28T04:14:28.593Z,26.52
2022-12-28T04:16:56.518Z,25.52
2022-12-28T04:19:24.479Z,25.92
2022-12-28T04:21:52.451Z,27.27
2022-12-28T04:24:21.799Z,27.52
2022-12-28T04:26:49.866Z,28.13
2022-12-28T04:29:17.839Z,30.73
2022-12-28T04:31:45.793Z,30.77
2022-12-28T04:34:14.091Z,26.55
2022-12-28T04:36:42.674Z,29.55
2022-12-28T04:39:10.849Z,30.13
2022-12-28T04:41:40.283Z,25.67
2022-12-28T04:44:08.229Z,30.35
2022-12-28T04:46:36.264Z,28.33
2022-12-28T04:49:04.703Z,30.13
2022-12-28T04:51:35.251Z,31.08
2022-12-28T04:54:03.205Z,29.00
2022-12-28T04:56:31.597Z,29.55
2022-12-28T04:59:01.871Z,30.17
2022-12-28T05:01:30.071Z,30.27
2022-12-28T05:03:59.557Z,36.47
2022-12-28T05:06:29.370Z,38.95
2022-12-28T05:08:58.266Z,38.58
2022-12-28T05:11:28.112Z,37.35
2022-12-28T05:13:56.386Z,38.25
2022-12-28T05:16:28.497Z,40.83
2022-12-28T05:18:57.458Z,40.58
2022-12-28T05:21:27.192Z,40.38
2022-12-28T05:23:55.690Z,35.55
2022-12-28T05:26:25.789Z,35.50
2022-12-28T05:28:54.018Z,35.78
2022-12-28T05:31:23.842Z,36.17
2022-12-28T05:33:53.655Z,36.67
2022-12-28T05:36:24.212Z,32.40
2022-12-28T05:38:52.834Z,33.10
2022-12-28T05:41:22.823Z,34.30
2022-12-28T05:43:51.394Z,34.28
2022-12-28T05:46:22.015Z,33.75
2022-12-28T05:48:50.179Z,35.90
2022-12-28T05:51:22.428Z,36.00
2022-12-28T05:53:50.649Z,33.80
2022-12-28T05:56:20.371Z,32.17
2022-12-28T05:58:53.502Z,30.17
2022-12-28T06:01:23.700Z,30.05
2022-12-28T06:03:55.759Z,30.92
2022-12-28T06:06:25.612Z,35.00
2022-12-28T06:08:53.867Z,35.95
2022-12-28T06:11:23.390Z,33.00
2022-12-28T06:13:52.047Z,35.25
2022-12-28T06:16:23.083Z,35.97
2022-12-28T06:18:52.363Z,33.78
2022-12-28T06:21:21.698Z,35.78
2022-12-28T06:23:51.577Z,33.88
2022-12-28T06:26:21.623Z,35.10
2022-12-28T06:28:50.375Z,34.92
2022-12-28T06:31:20.152Z,35.50
2022-12-28T06:33:50.109Z,34.22
2022-12-28T06:36:20.443Z,38.83
2022-12-28T06:38:51.134Z,34.00
2022-12-28T06:41:21.171Z,32.08
2022-12-28T06:43:50.015Z,31.70
2022-12-28T06:46:20.076Z,35.72
2022-12-28T06:48:48.528Z,32.85
2022-12-28T06:51:18.081Z,32.25
2022-12-28T06:53:47.286Z,31.70
2022-12-28T06:56:18.310Z,34.35
2022-12-28T06:58:47.618Z,37.97
2022-12-28T07:01:17.573Z,29.15
2022-12-28T07:03:50.227Z,33.33
2022-12-28T07:06:19.905Z,30.15
2022-12-28T07:08:48.109Z,32.35
2022-12-28T07:11:19.400Z,33.30
2022-12-28T07:13:47.947Z,37.25
2022-12-28T07:16:17.627Z,30.88
2022-12-28T07:18:45.835Z,32.47
2022-12-28T07:21:16.547Z,34.08
2022-12-28T07:23:44.588Z,34.50
2022-12-28T07:26:14.764Z,35.03
2022-12-28T07:28:46.532Z,32.10
2022-12-28T07:31:16.753Z,36.17
2022-12-28T07:33:45.944Z,34.33
2022-12-28T07:36:16.169Z,32.42
2022-12-28T07:38:44.468Z,31.58
2022-12-28T07:41:14.048Z,34.30
2022-12-28T07:43:43.815Z,30.92
2022-12-28T07:46:13.697Z,29.45
2022-12-28T07:48:43.229Z,28.42
2022-12-28T07:51:14.179Z,31.52
2022-12-28T07:53:42.923Z,32.42
2022-12-28T07:56:11.701Z,29.90
2022-12-28T08:01:10.845Z,28.30
2022-12-28T08:03:39.549Z,32.30
2022-12-28T08:06:09.368Z,30.48
2022-12-28T08:08:38.179Z,32.03
2022-12-28T08:11:07.925Z,29.13
2022-12-28T08:13:37.381Z,30.25
2022-12-28T08:16:06.327Z,29.98
2022-12-28T08:18:35.852Z,29.70
2022-12-28T08:21:05.943Z,30.90
2022-12-28T08:23:34.134Z,33.30
2022-12-28T08:26:07.590Z,31.63
2022-12-28T08:28:36.441Z,31.40
2022-12-28T08:31:08.410Z,32.92
2022-12-28T08:33:37.814Z,29.13
2022-12-28T08:36:06.606Z,30.98
2022-12-28T08:38:35.125Z,31.15
2022-12-28T08:41:04.722Z,32.13
2022-12-28T08:43:33.986Z,30.23
2022-12-28T08:46:03.551Z,29.13
2022-12-28T08:48:31.612Z,30.77
2022-12-28T08:51:04.846Z,30.67
2022-12-28T08:53:32.894Z,29.15
2022-12-28T08:56:06.839Z,30.30
2022-12-28T08:58:35.077Z,31.77
2022-12-28T09:01:07.707Z,29.42
2022-12-28T09:03:37.979Z,30.13
2022-12-28T09:06:09.669Z,28.13
2022-12-28T09:08:38.348Z,26.88
2022-12-28T09:11:07.949Z,25.67
2022-12-28T09:13:36.744Z,24.30
2022-12-28T09:16:06.922Z,22.85
2022-12-28T09:18:35.888Z,23.02
2022-12-28T09:21:11.559Z,22.30
2022-12-28T09:23:39.642Z,22.85
2022-12-28T09:26:09.041Z,24.30
2022-12-28T09:28:37.665Z,24.13
2022-12-28T09:31:06.847Z,22.65
2022-12-28T09:34:32.066Z,23.75
2022-12-28T09:36:44.346Z,24.42
2022-12-28T09:39:14.541Z,22.75
2022-12-28T09:41:48.282Z,24.38
2022-12-28T09:44:44.722Z,23.50
2022-12-28T09:47:23.915Z,21.85
2022-12-28T09:50:03.446Z,21.65
2022-12-28T09:52:35.387Z,19.42
2022-12-28T09:55:11.816Z,19.13
2022-12-28T09:57:43.282Z,19.83
2022-12-28T10:00:18.891Z,21.20
2022-12-28T10:02:51.256Z,19.80
2022-12-28T10:07:50.848Z,19.38
2022-12-28T10:10:19.958Z,19.88
2022-12-28T10:12:48.892Z,20.05
2022-12-28T10:15:17.628Z,21.40
2022-12-28T10:17:46.087Z,23.23
2022-12-28T10:20:20.552Z,25.30
2022-12-28T10:22:53.435Z,28.48
2022-12-28T10:25:23.974Z,25.92
2022-12-28T10:27:52.665Z,28.70
2022-12-28T10:30:24.039Z,25.67
2022-12-28T10:33:01.330Z,25.88
2022-12-28T10:35:33.162Z,29.42
2022-12-28T10:38:05.195Z,31.23
2022-12-28T10:40:35.758Z,27.92
2022-12-28T10:43:10.212Z,31.92
2022-12-28T10:45:43.216Z,32.80
2022-12-28T10:48:16.411Z,31.80
2022-12-28T10:50:50.582Z,34.05
2022-12-28T10:53:25.386Z,36.63
2022-12-28T10:56:03.513Z,35.08
2022-12-28T10:58:33.229Z,39.75
2022-12-28T11:01:05.398Z,40.28
2022-12-28T11:03:37.038Z,38.05
2022-12-28T11:06:19.867Z,37.10
2022-12-28T11:09:06.000Z,38.33
2022-12-28T11:11:34.537Z,38.43
2022-12-28T11:14:06.053Z,37.00
2022-12-28T11:16:37.785Z,38.30
2022-12-28T11:19:06.054Z,42.30
2022-12-28T11:21:35.961Z,39.80
2022-12-28T11:24:06.201Z,39.38
2022-12-28T11:26:35.211Z,39.70
2022-12-28T11:29:03.611Z,38.40
2022-12-28T11:31:35.181Z,37.58
2022-12-28T11:34:05.711Z,39.80
2022-12-28T11:36:41.714Z,37.00
2022-12-28T11:39:42.309Z,37.05
2022-12-28T11:42:38.020Z,33.45
2022-12-28T11:44:58.230Z,39.88
2022-12-28T11:47:33.178Z,34.40
2022-12-28T11:50:42.325Z,34.95
2022-12-28T11:53:24.411Z,37.92
2022-12-28T11:56:04.207Z,42.92
2022-12-28T11:59:01.201Z,46.03
2022-12-28T12:01:44.656Z,43.22
2022-12-28T12:04:40.803Z,41.25
2022-12-28T12:07:41.518Z,41.22
2022-12-28T12:10:35.073Z,41.30
2022-12-28T12:13:44.620Z,38.03
2022-12-28T12:16:27.759Z,36.15
2022-12-28T12:18:58.748Z,36.97
2022-12-28T12:21:32.815Z,37.72
2022-12-28T12:24:10.921Z,38.75
2022-12-28T12:26:45.871Z,39.50
2022-12-28T12:29:18.624Z,39.10
2022-12-28T12:31:51.781Z,39.10
2022-12-28T12:34:27.409Z,39.03
2022-12-28T12:37:31.934Z,35.47
2022-12-28T12:40:26.068Z,41.25
2022-12-28T12:43:10.802Z,35.05
2022-12-28T12:45:53.119Z,36.10
2022-12-28T12:48:35.088Z,35.08
2022-12-28T12:51:27.350Z,30.38
2022-12-28T12:54:28.002Z,30.23
2022-12-28T12:57:00.530Z,31.00
2022-12-28T12:59:48.750Z,34.35
2022-12-28T13:02:41.176Z,32.15
2022-12-28T13:05:17.190Z,33.05
2022-12-28T13:07:45.723Z,28.77
2022-12-28T13:10:19.042Z,28.00
2022-12-28T13:12:47.100Z,29.60
2022-12-28T13:15:19.114Z,29.95
2022-12-28T13:20:57.105Z,24.50
2022-12-28T13:23:26.124Z,23.40
2022-12-28T13:25:56.321Z,22.75
2022-12-28T13:28:29.700Z,22.67
2022-12-28T13:31:02.236Z,22.52
2022-12-28T13:33:31.787Z,21.00
2022-12-28T13:36:12.745Z,17.40
2022-12-28T13:38:40.770Z,15.07
2022-12-28T13:41:20.881Z,15.35
2022-12-28T13:44:23.638Z,13.32
2022-12-28T13:46:56.828Z,15.20
2022-12-28T13:49:28.618Z,16.10
2022-12-28T13:51:57.404Z,14.48
2022-12-28T13:54:25.942Z,15.45
2022-12-28T13:57:20.395Z,13.07
2022-12-28T13:59:46.501Z,14.50
2022-12-28T14:02:18.568Z,14.27
2022-12-28T14:04:53.138Z,13.88
2022-12-28T14:07:24.824Z,13.30
2022-12-28T14:12:23.054Z,12.80
2022-12-28T14:14:51.644Z,14.25
2022-12-28T14:17:20.966Z,11.82
2022-12-28T14:19:51.157Z,10.32
2022-12-28T14:22:33.504Z,14.30
2022-12-28T14:25:07.620Z,14.43
2022-12-28T14:27:38.578Z,14.93
2022-12-28T14:30:09.175Z,12.90
2022-12-28T14:32:42.705Z,15.48
2022-12-28T14:35:19.774Z,13.23
2022-12-28T14:37:52.658Z,14.13
2022-12-28T14:40:27.970Z,14.52
2022-12-28T14:42:56.964Z,14.30
2022-12-28T14:46:04.950Z,11.48
2022-12-28T14:48:33.727Z,13.35
2022-12-28T14:51:05.068Z,14.95
2022-12-28T14:53:33.303Z,17.98
2022-12-28T14:56:05.679Z,15.55
2022-12-28T14:58:40.413Z,16.98
2022-12-28T15:01:10.454Z,19.08
2022-12-28T15:03:53.176Z,17.27
2022-12-28T15:08:51.880Z,18.80
2022-12-28T15:11:20.274Z,19.08
2022-12-28T15:13:49.054Z,21.02
2022-12-28T15:16:18.874Z,21.27
2022-12-28T15:18:47.314Z,20.67
2022-12-28T15:21:17.372Z,21.90
2022-12-28T15:23:49.872Z,18.80
2022-12-28T15:26:18.206Z,20.92
2022-12-28T15:28:46.308Z,19.90
2022-12-28T15:31:16.980Z,23.15
2022-12-28T15:33:45.717Z,23.52
2022-12-28T15:36:17.988Z,24.42
2022-12-28T15:38:48.185Z,23.77
2022-12-28T15:41:34.428Z,22.10
2022-12-28T15:44:02.415Z,23.48
2022-12-28T15:46:30.530Z,27.05
2022-12-28T15:48:58.562Z,24.35
2022-12-28T15:51:26.470Z,27.35
2022-12-28T15:53:55.812Z,28.10
2022-12-28T15:56:26.170Z,28.58
2022-12-28T15:58:56.148Z,27.85
2022-12-28T16:01:25.821Z,24.13
2022-12-28T16:03:55.571Z,24.30
2022-12-28T16:06:24.381Z,29.17
2022-12-28T16:08:57.043Z,29.58
2022-12-28T16:11:26.186Z,31.30
2022-12-28T16:13:56.253Z,28.30
2022-12-28T16:16:25.044Z,30.17
2022-12-28T16:18:56.511Z,27.85
2022-12-28T16:21:25.597Z,31.33
2022-12-28T16:23:53.931Z,28.23
2022-12-28T16:26:23.526Z,33.53
2022-12-28T16:28:51.552Z,30.25
2022-12-28T16:31:24.623Z,32.72
2022-12-28T16:33:56.848Z,31.80
2022-12-28T16:36:25.302Z,35.05
2022-12-28T16:38:53.956Z,33.03
2022-12-28T16:41:24.009Z,37.83
2022-12-28T16:43:52.137Z,35.03
2022-12-28T16:46:20.372Z,33.45
2022-12-28T16:48:48.374Z,35.17
2022-12-28T16:51:16.317Z,35.92
2022-12-28T16:53:44.278Z,38.72
2022-12-28T16:56:12.253Z,39.45
2022-12-28T16:58:44.987Z,38.88
2022-12-28T17:01:15.665Z,37.78
2022-12-28T17:03:43.947Z,42.17
2022-12-28T17:06:12.163Z,41.03
2022-12-28T17:08:40.350Z,45.08
2022-12-28T17:11:10.190Z,49.42
2022-12-28T17:13:38.300Z,54.15
2022-12-28T17:16:08.975Z,52.30
2022-12-28T17:18:37.536Z,51.33
2022-12-28T17:21:07.399Z,45.78
2022-12-28T17:23:35.470Z,47.88
2022-12-28T17:26:03.444Z,51.78
2022-12-28T17:28:31.361Z,54.35
2022-12-28T17:31:10.172Z,57.58
2022-12-28T17:33:40.068Z,55.58
2022-12-28T17:36:09.591Z,59.53
2022-12-28T17:38:37.702Z,56.25
2022-12-28T17:41:10.154Z,63.08
2022-12-28T17:46:07.747Z,50.95
2022-12-28T17:48:35.801Z,58.70
2022-12-28T17:51:10.905Z,53.05
2022-12-28T17:53:40.152Z,61.33
2022-12-28T17:56:10.156Z,63.80
2022-12-28T17:58:38.098Z,62.17
2022-12-28T18:01:08.239Z,63.65
2022-12-28T18:03:36.918Z,63.97
2022-12-28T18:06:05.669Z,56.75
2022-12-28T18:08:34.075Z,67.28
2022-12-28T18:11:02.190Z,63.38
2022-12-28T18:13:30.252Z,64.30
2022-12-28T18:15:58.400Z,66.45
2022-12-28T18:18:27.719Z,71.03
2022-12-28T18:20:59.748Z,71.00
2022-12-28T18:23:28.718Z,72.03
2022-12-28T18:26:02.695Z,70.47
2022-12-28T18:28:30.713Z,66.55
2022-12-28T18:31:02.071Z,66.95
2022-12-28T18:33:32.862Z,60.58
2022-12-28T18:36:02.909Z,68.65
2022-12-28T18:38:31.489Z,58.17
2022-12-28T18:41:00.401Z,54.53
2022-12-28T18:43:28.820Z,65.95
2022-12-28T18:45:58.977Z,63.30
2022-12-28T18:48:28.210Z,61.92
2022-12-28T18:50:59.734Z,54.70
2022-12-28T18:53:29.045Z,67.47
2022-12-28T18:55:58.599Z,70.88
2022-12-28T18:58:27.531Z,65.50
2022-12-28T19:00:55.666Z,69.28
2022-12-28T19:03:23.713Z,71.03
2022-12-28T19:06:02.875Z,66.80
2022-12-28T19:08:31.778Z,65.35
2022-12-28T19:11:00.269Z,68.90
2022-12-28T19:13:28.751Z,68.25
2022-12-28T19:15:56.964Z,64.90
2022-12-28T19:18:24.976Z,68.40
2022-12-28T19:20:59.100Z,66.57
2022-12-28T19:23:27.405Z,70.93
2022-12-28T19:25:59.510Z,71.68
2022-12-28T19:28:27.678Z,65.65
2022-12-28T19:31:01.028Z,64.35
2022-12-28T19:33:32.591Z,65.40
2022-12-28T19:36:02.088Z,66.65
2022-12-28T19:38:30.032Z,63.13
2022-12-28T19:40:58.626Z,65.25
2022-12-28T19:43:26.539Z,62.63
2022-12-28T19:45:54.498Z,53.58
2022-12-28T19:48:22.447Z,49.88
2022-12-28T19:50:50.405Z,55.45
2022-12-28T19:53:19.750Z,55.30
2022-12-28T19:55:47.685Z,53.22
2022-12-28T19:58:15.652Z,56.00
2022-12-28T20:00:43.573Z,54.63
2022-12-28T20:03:12.696Z,51.05
2022-12-28T20:05:40.796Z,50.50
2022-12-28T20:08:08.718Z,51.30
2022-12-28T20:10:38.054Z,49.75
2022-12-28T20:13:06.015Z,47.38
2022-12-28T20:15:34.781Z,45.35
2022-12-28T20:18:02.715Z,47.10
2022-12-28T20:20:45.799Z,45.80
2022-12-28T20:23:18.946Z,42.95
2022-12-28T20:25:52.687Z,44.92
2022-12-28T20:28:20.802Z,41.28
2022-12-28T20:30:49.141Z,43.22
2022-12-28T20:33:18.041Z,41.85
2022-12-28T20:35:57.176Z,40.65
2022-12-28T20:38:25.344Z,39.88
2022-12-28T20:41:04.472Z,45.40
2022-12-28T20:43:31.899Z,43.17
2022-12-28T20:46:00.134Z,43.00
2022-12-28T20:48:28.154Z,40.78
2022-12-28T20:51:00.241Z,39.97
2022-12-28T20:53:28.937Z,34.45
2022-12-28T20:56:08.429Z,41.00
2022-12-28T20:58:36.878Z,41.67
2022-12-28T21:01:05.519Z,43.22
2022-12-28T21:03:33.625Z,41.53
2022-12-28T21:06:01.654Z,37.47
2022-12-28T21:08:30.988Z,33.40
2022-12-28T21:10:59.702Z,35.70
2022-12-28T21:13:29.145Z,37.17
2022-12-28T21:15:57.423Z,38.17
2022-12-28T21:18:25.617Z,39.35
2022-12-28T21:20:57.251Z,39.55
2022-12-28T21:23:25.418Z,36.50
2022-12-28T21:25:53.395Z,38.00
2022-12-28T21:28:21.302Z,37.45
2022-12-28T21:30:55.656Z,37.95
2022-12-28T21:33:25.595Z,37.95
2022-12-28T21:36:04.536Z,41.55
2022-12-28T21:38:33.677Z,38.58
2022-12-28T21:41:02.760Z,41.00
2022-12-28T21:43:31.643Z,38.95
2022-12-28T21:46:03.161Z,39.25
2022-12-28T21:48:32.284Z,38.83
2022-12-28T21:51:05.891Z,43.30
2022-12-28T21:53:34.376Z,42.88
2022-12-28T21:56:02.502Z,46.05
2022-12-28T21:58:30.451Z,49.25
2022-12-28T22:01:16.692Z,46.95
2022-12-28T22:04:03.606Z,52.38
2022-12-28T22:06:31.531Z,48.75
2022-12-28T22:09:17.155Z,51.90
2022-12-28T22:12:02.593Z,59.33
2022-12-28T22:14:30.559Z,59.00
2022-12-28T22:16:58.512Z,63.45
2022-12-28T22:19:28.905Z,62.72
2022-12-28T22:21:56.816Z,64.95
2022-12-28T22:24:24.897Z,68.80
2022-12-28T22:26:52.768Z,68.85
2022-12-28T22:29:21.417Z,68.32
2022-12-28T22:31:49.411Z,60.20
2022-12-28T22:34:17.355Z,67.05
2022-12-28T22:36:46.655Z,73.82
2022-12-28T22:39:14.551Z,66.75
2022-12-28T22:41:42.471Z,66.82
2022-12-28T22:44:11.252Z,67.55
2022-12-28T22:46:39.288Z,68.43
2022-12-28T22:49:07.243Z,66.75
2022-12-28T22:51:35.172Z,59.83
2022-12-28T22:54:04.614Z,58.38
2022-12-28T22:56:32.606Z,62.33
2022-12-28T22:59:04.721Z,66.22
2022-12-28T23:01:34.793Z,62.88
2022-12-28T23:04:02.841Z,61.00
2022-12-28T23:06:30.778Z,63.40
2022-12-28T23:08:58.971Z,62.88
2022-12-28T23:11:37.402Z,65.72
2022-12-28T23:14:28.516Z,66.15
2022-12-28T23:16:56.710Z,71.15
2022-12-28T23:19:42.991Z,63.80
2022-12-28T23:22:32.267Z,59.92
2022-12-28T23:25:17.948Z,58.83
2022-12-28T23:27:48.339Z,55.33
2022-12-28T23:30:18.770Z,53.78
2022-12-28T23:32:46.808Z,54.55
2022-12-28T23:35:15.002Z,50.13
2022-12-28T23:37:42.893Z,48.28
2022-12-28T23:40:13.628Z,50.03
2022-12-28T23:42:42.838Z,47.20
2022-12-28T23:45:14.824Z,50.97
2022-12-28T23:47:43.827Z,45.30
2022-12-28T23:50:13.173Z,39.67
2022-12-28T23:52:41.141Z,36.15
2022-12-28T23:55:10.556Z,37.03
2022-12-28T23:57:38.921Z,35.28
